Culym, Russia
Current Conditions -  °F | °C
As of 9:30 PM on Tuesday 27 Jan 2015 (Local Time) from UNNT Reporting Station
Overcast Overcast  
Wind Chill: -17°   Ceiling: 2300
Heat Index:   Visibility: 6mi
Dew Point: -8°   Wind: 11mph
Humidity: 72%   Direction: 210°SSW
Pressure: 30.39"   Gusts: NA
Location:  55.1°N, 80.97°E
Report Text: UNNT 271430Z 21005MPS 9999 OVC023 M18/M22 Q1029 2581016016810160 NOSIG RMK QFE761/1015
Loading
Personal Weather Stations






























Interactive Weather Map New forecast layout! Learn more

10-Day Weather Forecast

Advertisements
Track Severe Weather on mobile